sensor_id;sensor_type;location;lat;lon;timestamp;P1;durP1;ratioP1;P2;durP2;ratioP2
49029;SDS011;43337;52.070;4.508;2023-04-08T00:02:24;36.47;;;15.57;;
49029;SDS011;43337;52.070;4.508;2023-04-08T00:04:49;40.65;;;15.13;;
49029;SDS011;43337;52.070;4.508;2023-04-08T00:07:15;40.58;;;16.30;;
49029;SDS011;43337;52.070;4.508;2023-04-08T00:09:40;37.20;;;15.80;;
49029;SDS011;43337;52.070;4.508;2023-04-08T00:12:05;38.22;;;16.92;;
49029;SDS011;43337;52.070;4.508;2023-04-08T00:14:31;35.20;;;15.48;;
49029;SDS011;43337;52.070;4.508;2023-04-08T00:16:56;36.42;;;16.38;;
49029;SDS011;43337;52.070;4.508;2023-04-08T00:19:22;39.92;;;17.40;;
49029;SDS011;43337;52.070;4.508;2023-04-08T00:21:47;38.95;;;16.35;;
49029;SDS011;43337;52.070;4.508;2023-04-08T00:24:14;40.05;;;16.88;;
49029;SDS011;43337;52.070;4.508;2023-04-08T00:26:40;38.83;;;16.23;;
49029;SDS011;43337;52.070;4.508;2023-04-08T00:29:05;38.38;;;16.35;;
49029;SDS011;43337;52.070;4.508;2023-04-08T00:31:31;44.08;;;16.70;;
49029;SDS011;43337;52.070;4.508;2023-04-08T00:33:56;42.42;;;16.83;;
49029;SDS011;43337;52.070;4.508;2023-04-08T00:36:22;45.47;;;19.23;;
49029;SDS011;43337;52.070;4.508;2023-04-08T00:38:47;45.95;;;17.92;;
49029;SDS011;43337;52.070;4.508;2023-04-08T00:41:12;45.92;;;18.13;;
49029;SDS011;43337;52.070;4.508;2023-04-08T00:43:38;43.55;;;18.20;;
49029;SDS011;43337;52.070;4.508;2023-04-08T00:46:03;43.72;;;18.60;;
49029;SDS011;43337;52.070;4.508;2023-04-08T00:48:29;46.28;;;18.05;;
49029;SDS011;43337;52.070;4.508;2023-04-08T00:50:55;38.75;;;17.33;;
49029;SDS011;43337;52.070;4.508;2023-04-08T00:53:21;40.85;;;17.58;;
49029;SDS011;43337;52.070;4.508;2023-04-08T00:55:46;43.13;;;19.15;;
49029;SDS011;43337;52.070;4.508;2023-04-08T00:58:12;43.45;;;18.55;;
49029;SDS011;43337;52.070;4.508;2023-04-08T01:00:39;46.78;;;17.70;;
49029;SDS011;43337;52.070;4.508;2023-04-08T01:03:13;40.35;;;18.30;;
49029;SDS011;43337;52.070;4.508;2023-04-08T01:05:55;44.03;;;18.40;;
49029;SDS011;43337;52.070;4.508;2023-04-08T01:08:42;43.05;;;18.10;;
49029;SDS011;43337;52.070;4.508;2023-04-08T01:11:09;50.33;;;19.25;;
49029;SDS011;43337;52.070;4.508;2023-04-08T01:13:36;41.92;;;18.92;;
49029;SDS011;43337;52.070;4.508;2023-04-08T01:16:07;59.20;;;22.13;;
49029;SDS011;43337;52.070;4.508;2023-04-08T01:18:34;50.22;;;19.63;;
49029;SDS011;43337;52.070;4.508;2023-04-08T01:21:01;49.75;;;20.33;;
49029;SDS011;43337;52.070;4.508;2023-04-08T01:23:36;48.55;;;19.88;;
49029;SDS011;43337;52.070;4.508;2023-04-08T01:26:07;44.25;;;18.42;;
49029;SDS011;43337;52.070;4.508;2023-04-08T01:28:37;48.80;;;17.85;;
49029;SDS011;43337;52.070;4.508;2023-04-08T01:31:03;48.33;;;19.08;;
49029;SDS011;43337;52.070;4.508;2023-04-08T01:33:30;47.28;;;18.52;;
49029;SDS011;43337;52.070;4.508;2023-04-08T01:35:55;49.13;;;20.55;;
49029;SDS011;43337;52.070;4.508;2023-04-08T01:38:23;51.80;;;19.35;;
49029;SDS011;43337;52.070;4.508;2023-04-08T01:40:50;53.97;;;20.00;;
49029;SDS011;43337;52.070;4.508;2023-04-08T01:43:17;53.80;;;19.30;;
49029;SDS011;43337;52.070;4.508;2023-04-08T01:48:46;48.92;;;18.95;;
49029;SDS011;43337;52.070;4.508;2023-04-08T01:51:12;56.13;;;21.17;;
49029;SDS011;43337;52.070;4.508;2023-04-08T01:53:40;52.35;;;19.33;;
49029;SDS011;43337;52.070;4.508;2023-04-08T01:56:09;55.70;;;19.90;;
49029;SDS011;43337;52.070;4.508;2023-04-08T01:58:37;59.50;;;20.52;;
49029;SDS011;43337;52.070;4.508;2023-04-08T02:01:13;53.10;;;19.10;;
49029;SDS011;43337;52.070;4.508;2023-04-08T02:03:42;56.85;;;20.58;;
49029;SDS011;43337;52.070;4.508;2023-04-08T02:06:09;56.40;;;20.67;;
49029;SDS011;43337;52.070;4.508;2023-04-08T02:08:36;50.97;;;19.02;;
49029;SDS011;43337;52.070;4.508;2023-04-08T02:11:02;51.47;;;19.65;;
49029;SDS011;43337;52.070;4.508;2023-04-08T02:13:28;70.45;;;22.55;;
49029;SDS011;43337;52.070;4.508;2023-04-08T02:19:08;49.45;;;19.10;;
49029;SDS011;43337;52.070;4.508;2023-04-08T02:21:48;53.22;;;19.55;;
49029;SDS011;43337;52.070;4.508;2023-04-08T02:24:19;55.97;;;20.45;;
49029;SDS011;43337;52.070;4.508;2023-04-08T02:26:46;51.20;;;17.55;;
49029;SDS011;43337;52.070;4.508;2023-04-08T02:29:16;55.05;;;19.83;;
49029;SDS011;43337;52.070;4.508;2023-04-08T02:31:43;52.97;;;19.63;;
49029;SDS011;43337;52.070;4.508;2023-04-08T02:34:11;58.85;;;20.88;;
49029;SDS011;43337;52.070;4.508;2023-04-08T02:36:38;56.35;;;20.08;;
49029;SDS011;43337;52.070;4.508;2023-04-08T02:39:05;57.78;;;19.77;;
49029;SDS011;43337;52.070;4.508;2023-04-08T02:41:30;55.65;;;20.10;;
49029;SDS011;43337;52.070;4.508;2023-04-08T02:43:56;53.53;;;18.98;;
49029;SDS011;43337;52.070;4.508;2023-04-08T02:46:21;60.75;;;21.95;;
49029;SDS011;43337;52.070;4.508;2023-04-08T02:48:47;55.83;;;18.75;;
49029;SDS011;43337;52.070;4.508;2023-04-08T02:51:12;54.70;;;19.85;;
49029;SDS011;43337;52.070;4.508;2023-04-08T02:53:38;54.13;;;19.83;;
49029;SDS011;43337;52.070;4.508;2023-04-08T02:56:03;57.28;;;20.33;;
49029;SDS011;43337;52.070;4.508;2023-04-08T03:01:47;54.38;;;18.65;;
49029;SDS011;43337;52.070;4.508;2023-04-08T03:04:13;53.67;;;19.33;;
49029;SDS011;43337;52.070;4.508;2023-04-08T03:06:38;55.40;;;20.50;;
49029;SDS011;43337;52.070;4.508;2023-04-08T03:09:04;54.53;;;19.38;;
49029;SDS011;43337;52.070;4.508;2023-04-08T03:11:32;56.33;;;20.77;;
49029;SDS011;43337;52.070;4.508;2023-04-08T03:13:58;54.55;;;20.45;;
49029;SDS011;43337;52.070;4.508;2023-04-08T03:16:23;55.50;;;19.92;;
49029;SDS011;43337;52.070;4.508;2023-04-08T03:18:49;51.88;;;17.77;;
49029;SDS011;43337;52.070;4.508;2023-04-08T03:21:17;54.20;;;18.75;;
49029;SDS011;43337;52.070;4.508;2023-04-08T03:23:43;51.75;;;19.70;;
49029;SDS011;43337;52.070;4.508;2023-04-08T03:32:09;62.78;;;20.38;;
49029;SDS011;43337;52.070;4.508;2023-04-08T03:34:35;59.03;;;20.10;;
49029;SDS011;43337;52.070;4.508;2023-04-08T03:37:00;54.70;;;18.77;;
49029;SDS011;43337;52.070;4.508;2023-04-08T03:39:26;52.72;;;20.52;;
49029;SDS011;43337;52.070;4.508;2023-04-08T03:41:51;60.22;;;20.67;;
49029;SDS011;43337;52.070;4.508;2023-04-08T03:44:16;56.92;;;20.10;;
49029;SDS011;43337;52.070;4.508;2023-04-08T03:46:42;62.78;;;20.15;;
49029;SDS011;43337;52.070;4.508;2023-04-08T03:49:07;57.92;;;19.58;;
49029;SDS011;43337;52.070;4.508;2023-04-08T03:51:32;60.55;;;21.65;;
49029;SDS011;43337;52.070;4.508;2023-04-08T03:53:58;55.45;;;20.42;;
49029;SDS011;43337;52.070;4.508;2023-04-08T03:56:23;65.80;;;21.98;;
49029;SDS011;43337;52.070;4.508;2023-04-08T03:58:49;64.07;;;21.42;;
49029;SDS011;43337;52.070;4.508;2023-04-08T04:01:15;60.88;;;21.95;;
49029;SDS011;43337;52.070;4.508;2023-04-08T04:03:40;64.65;;;21.25;;
49029;SDS011;43337;52.070;4.508;2023-04-08T04:06:06;65.70;;;22.90;;
49029;SDS011;43337;52.070;4.508;2023-04-08T04:08:31;62.75;;;21.67;;
49029;SDS011;43337;52.070;4.508;2023-04-08T04:10:57;67.85;;;22.88;;
49029;SDS011;43337;52.070;4.508;2023-04-08T04:13:23;64.93;;;22.60;;
49029;SDS011;43337;52.070;4.508;2023-04-08T04:15:49;69.85;;;21.30;;
49029;SDS011;43337;52.070;4.508;2023-04-08T04:18:15;76.55;;;23.50;;
49029;SDS011;43337;52.070;4.508;2023-04-08T04:20:41;120.30;;;22.10;;
49029;SDS011;43337;52.070;4.508;2023-04-08T04:23:07;128.73;;;21.73;;
49029;SDS011;43337;52.070;4.508;2023-04-08T04:25:33;74.93;;;20.45;;
49029;SDS011;43337;52.070;4.508;2023-04-08T04:27:58;173.98;;;21.20;;
49029;SDS011;43337;52.070;4.508;2023-04-08T04:30:24;277.77;;;27.30;;
49029;SDS011;43337;52.070;4.508;2023-04-08T04:32:49;118.13;;;21.75;;
49029;SDS011;43337;52.070;4.508;2023-04-08T04:35:15;186.82;;;23.75;;
49029;SDS011;43337;52.070;4.508;2023-04-08T04:37:40;166.45;;;22.85;;
49029;SDS011;43337;52.070;4.508;2023-04-08T04:40:06;220.20;;;22.65;;
49029;SDS011;43337;52.070;4.508;2023-04-08T04:42:33;99.47;;;19.38;;
49029;SDS011;43337;52.070;4.508;2023-04-08T04:44:59;83.32;;;20.42;;
49029;SDS011;43337;52.070;4.508;2023-04-08T04:47:24;90.63;;;19.77;;
49029;SDS011;43337;52.070;4.508;2023-04-08T04:49:50;80.22;;;20.80;;
49029;SDS011;43337;52.070;4.508;2023-04-08T04:52:15;159.13;;;22.70;;
49029;SDS011;43337;52.070;4.508;2023-04-08T04:54:41;164.50;;;24.10;;
49029;SDS011;43337;52.070;4.508;2023-04-08T04:57:06;162.73;;;22.40;;
49029;SDS011;43337;52.070;4.508;2023-04-08T04:59:31;135.18;;;21.65;;
49029;SDS011;43337;52.070;4.508;2023-04-08T05:01:57;188.43;;;22.48;;
49029;SDS011;43337;52.070;4.508;2023-04-08T05:04:23;147.00;;;21.85;;
49029;SDS011;43337;52.070;4.508;2023-04-08T05:06:48;136.13;;;21.70;;
49029;SDS011;43337;52.070;4.508;2023-04-08T05:09:14;178.15;;;25.58;;
49029;SDS011;43337;52.070;4.508;2023-04-08T05:11:39;199.48;;;25.50;;
49029;SDS011;43337;52.070;4.508;2023-04-08T05:14:05;130.82;;;24.83;;
49029;SDS011;43337;52.070;4.508;2023-04-08T05:16:31;95.22;;;21.27;;
49029;SDS011;43337;52.070;4.508;2023-04-08T05:18:56;95.65;;;24.73;;
49029;SDS011;43337;52.070;4.508;2023-04-08T05:21:22;181.82;;;25.38;;
49029;SDS011;43337;52.070;4.508;2023-04-08T05:23:48;96.07;;;21.65;;
49029;SDS011;43337;52.070;4.508;2023-04-08T05:26:15;123.15;;;23.65;;
49029;SDS011;43337;52.070;4.508;2023-04-08T05:28:41;141.90;;;24.05;;
49029;SDS011;43337;52.070;4.508;2023-04-08T05:31:06;126.63;;;23.80;;
49029;SDS011;43337;52.070;4.508;2023-04-08T05:33:31;150.82;;;22.02;;
49029;SDS011;43337;52.070;4.508;2023-04-08T05:35:57;78.97;;;20.98;;
49029;SDS011;43337;52.070;4.508;2023-04-08T05:38:22;126.43;;;22.00;;
49029;SDS011;43337;52.070;4.508;2023-04-08T05:40:47;168.18;;;24.17;;
49029;SDS011;43337;52.070;4.508;2023-04-08T05:43:13;119.07;;;21.70;;
49029;SDS011;43337;52.070;4.508;2023-04-08T05:45:38;134.52;;;22.73;;
49029;SDS011;43337;52.070;4.508;2023-04-08T05:48:04;202.88;;;26.15;;
49029;SDS011;43337;52.070;4.508;2023-04-08T05:50:29;157.38;;;24.77;;
49029;SDS011;43337;52.070;4.508;2023-04-08T05:52:55;131.43;;;24.77;;
49029;SDS011;43337;52.070;4.508;2023-04-08T05:55:20;117.60;;;26.13;;
49029;SDS011;43337;52.070;4.508;2023-04-08T05:57:46;84.80;;;23.67;;
49029;SDS011;43337;52.070;4.508;2023-04-08T06:00:11;97.65;;;27.08;;
49029;SDS011;43337;52.070;4.508;2023-04-08T06:02:37;84.50;;;24.95;;
49029;SDS011;43337;52.070;4.508;2023-04-08T06:05:02;76.93;;;24.63;;
49029;SDS011;43337;52.070;4.508;2023-04-08T06:07:28;74.65;;;23.70;;
49029;SDS011;43337;52.070;4.508;2023-04-08T06:09:54;79.05;;;25.55;;
49029;SDS011;43337;52.070;4.508;2023-04-08T06:12:20;79.43;;;24.23;;
49029;SDS011;43337;52.070;4.508;2023-04-08T06:14:46;68.68;;;24.65;;
49029;SDS011;43337;52.070;4.508;2023-04-08T06:17:12;68.18;;;23.27;;
49029;SDS011;43337;52.070;4.508;2023-04-08T06:19:38;80.70;;;26.75;;
49029;SDS011;43337;52.070;4.508;2023-04-08T06:22:03;70.80;;;23.65;;
49029;SDS011;43337;52.070;4.508;2023-04-08T06:24:28;66.80;;;22.33;;
49029;SDS011;43337;52.070;4.508;2023-04-08T06:26:54;63.05;;;23.25;;
49029;SDS011;43337;52.070;4.508;2023-04-08T06:29:20;61.80;;;23.45;;
49029;SDS011;43337;52.070;4.508;2023-04-08T06:31:47;56.38;;;22.80;;
49029;SDS011;43337;52.070;4.508;2023-04-08T06:34:12;63.55;;;22.73;;
49029;SDS011;43337;52.070;4.508;2023-04-08T06:36:38;57.75;;;21.90;;
49029;SDS011;43337;52.070;4.508;2023-04-08T06:39:03;58.30;;;21.95;;
49029;SDS011;43337;52.070;4.508;2023-04-08T06:41:29;60.42;;;23.23;;
49029;SDS011;43337;52.070;4.508;2023-04-08T06:43:54;53.80;;;22.05;;
49029;SDS011;43337;52.070;4.508;2023-04-08T06:46:20;58.63;;;22.58;;
49029;SDS011;43337;52.070;4.508;2023-04-08T06:48:46;55.80;;;21.52;;
49029;SDS011;43337;52.070;4.508;2023-04-08T06:51:12;56.60;;;20.58;;
49029;SDS011;43337;52.070;4.508;2023-04-08T06:53:38;52.42;;;19.17;;
49029;SDS011;43337;52.070;4.508;2023-04-08T06:56:03;50.95;;;20.27;;
49029;SDS011;43337;52.070;4.508;2023-04-08T06:58:29;60.15;;;19.63;;
49029;SDS011;43337;52.070;4.508;2023-04-08T07:00:54;57.33;;;21.08;;
49029;SDS011;43337;52.070;4.508;2023-04-08T07:03:20;52.58;;;18.58;;
49029;SDS011;43337;52.070;4.508;2023-04-08T07:05:46;54.03;;;18.80;;
49029;SDS011;43337;52.070;4.508;2023-04-08T07:08:12;51.65;;;19.27;;
49029;SDS011;43337;52.070;4.508;2023-04-08T07:10:38;54.92;;;19.85;;
49029;SDS011;43337;52.070;4.508;2023-04-08T07:13:03;47.08;;;18.60;;
49029;SDS011;43337;52.070;4.508;2023-04-08T07:15:29;47.85;;;17.75;;
49029;SDS011;43337;52.070;4.508;2023-04-08T07:17:54;73.20;;;17.05;;
49029;SDS011;43337;52.070;4.508;2023-04-08T07:20:23;43.92;;;16.38;;
49029;SDS011;43337;52.070;4.508;2023-04-08T07:22:50;42.42;;;15.82;;
49029;SDS011;43337;52.070;4.508;2023-04-08T07:25:15;41.38;;;16.08;;
49029;SDS011;43337;52.070;4.508;2023-04-08T07:27:41;55.60;;;15.98;;
49029;SDS011;43337;52.070;4.508;2023-04-08T07:30:07;51.35;;;14.60;;
49029;SDS011;43337;52.070;4.508;2023-04-08T07:32:32;57.30;;;16.23;;
49029;SDS011;43337;52.070;4.508;2023-04-08T07:34:59;35.50;;;13.55;;
49029;SDS011;43337;52.070;4.508;2023-04-08T07:37:25;41.33;;;14.27;;
49029;SDS011;43337;52.070;4.508;2023-04-08T07:39:51;46.75;;;13.63;;
49029;SDS011;43337;52.070;4.508;2023-04-08T07:42:16;61.45;;;12.77;;
49029;SDS011;43337;52.070;4.508;2023-04-08T07:44:42;42.88;;;13.07;;
49029;SDS011;43337;52.070;4.508;2023-04-08T07:47:08;37.00;;;11.93;;
49029;SDS011;43337;52.070;4.508;2023-04-08T07:49:33;26.48;;;11.50;;
49029;SDS011;43337;52.070;4.508;2023-04-08T07:51:59;51.60;;;13.02;;
49029;SDS011;43337;52.070;4.508;2023-04-08T07:54:24;42.38;;;12.15;;
49029;SDS011;43337;52.070;4.508;2023-04-08T07:56:50;46.97;;;10.95;;
49029;SDS011;43337;52.070;4.508;2023-04-08T07:59:15;51.47;;;12.18;;
49029;SDS011;43337;52.070;4.508;2023-04-08T08:01:40;53.40;;;12.48;;
49029;SDS011;43337;52.070;4.508;2023-04-08T08:04:06;53.53;;;12.30;;
49029;SDS011;43337;52.070;4.508;2023-04-08T08:06:31;39.63;;;13.45;;
49029;SDS011;43337;52.070;4.508;2023-04-08T08:08:57;42.92;;;12.25;;
49029;SDS011;43337;52.070;4.508;2023-04-08T08:11:22;33.33;;;13.07;;
49029;SDS011;43337;52.070;4.508;2023-04-08T08:13:48;30.05;;;12.25;;
49029;SDS011;43337;52.070;4.508;2023-04-08T08:16:13;26.42;;;11.73;;
49029;SDS011;43337;52.070;4.508;2023-04-08T08:24:58;32.83;;;14.32;;
49029;SDS011;43337;52.070;4.508;2023-04-08T08:27:24;35.75;;;13.55;;
49029;SDS011;43337;52.070;4.508;2023-04-08T08:29:49;35.65;;;14.05;;
49029;SDS011;43337;52.070;4.508;2023-04-08T08:32:15;28.98;;;13.75;;
49029;SDS011;43337;52.070;4.508;2023-04-08T08:34:41;27.17;;;13.50;;
49029;SDS011;43337;52.070;4.508;2023-04-08T08:37:06;28.52;;;13.75;;
49029;SDS011;43337;52.070;4.508;2023-04-08T08:39:31;26.80;;;13.70;;
49029;SDS011;43337;52.070;4.508;2023-04-08T08:41:57;28.30;;;14.68;;
49029;SDS011;43337;52.070;4.508;2023-04-08T08:44:23;26.13;;;13.70;;
49029;SDS011;43337;52.070;4.508;2023-04-08T08:46:48;26.00;;;14.63;;
49029;SDS011;43337;52.070;4.508;2023-04-08T08:49:13;27.52;;;14.85;;
49029;SDS011;43337;52.070;4.508;2023-04-08T08:51:39;29.42;;;14.85;;
49029;SDS011;43337;52.070;4.508;2023-04-08T08:54:06;30.95;;;16.02;;
49029;SDS011;43337;52.070;4.508;2023-04-08T08:56:32;31.50;;;16.75;;
49029;SDS011;43337;52.070;4.508;2023-04-08T08:58:58;35.45;;;17.90;;
49029;SDS011;43337;52.070;4.508;2023-04-08T09:01:33;35.00;;;18.95;;
49029;SDS011;43337;52.070;4.508;2023-04-08T09:06:43;36.42;;;19.58;;
49029;SDS011;43337;52.070;4.508;2023-04-08T09:09:09;35.28;;;19.45;;
49029;SDS011;43337;52.070;4.508;2023-04-08T09:11:38;40.67;;;20.60;;
49029;SDS011;43337;52.070;4.508;2023-04-08T09:14:27;41.10;;;21.75;;
49029;SDS011;43337;52.070;4.508;2023-04-08T09:16:51;40.28;;;20.85;;
49029;SDS011;43337;52.070;4.508;2023-04-08T09:19:17;37.28;;;20.05;;
49029;SDS011;43337;52.070;4.508;2023-04-08T09:21:43;36.97;;;20.33;;
49029;SDS011;43337;52.070;4.508;2023-04-08T09:24:09;36.00;;;19.75;;
49029;SDS011;43337;52.070;4.508;2023-04-08T09:26:51;33.33;;;18.33;;
49029;SDS011;43337;52.070;4.508;2023-04-08T09:29:17;33.42;;;17.90;;
49029;SDS011;43337;52.070;4.508;2023-04-08T09:31:42;32.58;;;18.42;;
49029;SDS011;43337;52.070;4.508;2023-04-08T09:36:41;31.25;;;17.45;;
49029;SDS011;43337;52.070;4.508;2023-04-08T09:39:08;22.42;;;14.30;;
49029;SDS011;43337;52.070;4.508;2023-04-08T09:41:34;23.20;;;14.23;;
49029;SDS011;43337;52.070;4.508;2023-04-08T09:44:05;22.98;;;14.50;;
49029;SDS011;43337;52.070;4.508;2023-04-08T09:49:17;21.13;;;13.40;;
49029;SDS011;43337;52.070;4.508;2023-04-08T09:51:58;25.17;;;14.35;;
49029;SDS011;43337;52.070;4.508;2023-04-08T09:54:49;23.73;;;14.30;;
49029;SDS011;43337;52.070;4.508;2023-04-08T09:57:30;24.58;;;14.30;;
49029;SDS011;43337;52.070;4.508;2023-04-08T10:02:37;24.73;;;14.27;;
49029;SDS011;43337;52.070;4.508;2023-04-08T10:05:10;20.83;;;13.65;;
49029;SDS011;43337;52.070;4.508;2023-04-08T10:07:37;22.80;;;13.27;;
49029;SDS011;43337;52.070;4.508;2023-04-08T10:10:03;21.20;;;13.25;;
49029;SDS011;43337;52.070;4.508;2023-04-08T10:12:30;22.92;;;14.13;;
49029;SDS011;43337;52.070;4.508;2023-04-08T10:17:52;19.98;;;12.60;;
49029;SDS011;43337;52.070;4.508;2023-04-08T10:23:00;19.55;;;12.32;;
49029;SDS011;43337;52.070;4.508;2023-04-08T10:25:45;21.25;;;13.38;;
49029;SDS011;43337;52.070;4.508;2023-04-08T10:30:42;21.52;;;12.10;;
49029;SDS011;43337;52.070;4.508;2023-04-08T10:33:09;17.98;;;11.80;;
49029;SDS011;43337;52.070;4.508;2023-04-08T10:35:45;20.30;;;11.75;;
49029;SDS011;43337;52.070;4.508;2023-04-08T10:38:12;19.30;;;11.93;;
49029;SDS011;43337;52.070;4.508;2023-04-08T10:40:39;17.73;;;11.57;;
49029;SDS011;43337;52.070;4.508;2023-04-08T10:43:11;19.70;;;12.00;;
49029;SDS011;43337;52.070;4.508;2023-04-08T10:45:38;18.00;;;11.85;;
49029;SDS011;43337;52.070;4.508;2023-04-08T10:48:15;15.85;;;11.27;;
49029;SDS011;43337;52.070;4.508;2023-04-08T10:51:21;17.70;;;10.85;;
49029;SDS011;43337;52.070;4.508;2023-04-08T10:53:40;17.73;;;11.48;;
49029;SDS011;43337;52.070;4.508;2023-04-08T10:58:47;17.30;;;11.57;;
49029;SDS011;43337;52.070;4.508;2023-04-08T11:01:13;18.73;;;11.50;;
49029;SDS011;43337;52.070;4.508;2023-04-08T11:03:40;17.50;;;11.60;;
49029;SDS011;43337;52.070;4.508;2023-04-08T11:06:06;17.25;;;11.38;;
49029;SDS011;43337;52.070;4.508;2023-04-08T11:08:32;18.77;;;11.65;;
49029;SDS011;43337;52.070;4.508;2023-04-08T11:10:59;15.18;;;9.88;;
49029;SDS011;43337;52.070;4.508;2023-04-08T11:13:29;15.15;;;11.05;;
49029;SDS011;43337;52.070;4.508;2023-04-08T11:15:58;15.55;;;10.75;;
49029;SDS011;43337;52.070;4.508;2023-04-08T11:18:24;17.27;;;10.88;;
49029;SDS011;43337;52.070;4.508;2023-04-08T11:20:50;16.67;;;10.65;;
49029;SDS011;43337;52.070;4.508;2023-04-08T11:23:16;16.20;;;10.13;;
49029;SDS011;43337;52.070;4.508;2023-04-08T11:25:43;15.30;;;9.50;;
49029;SDS011;43337;52.070;4.508;2023-04-08T11:28:10;15.85;;;9.63;;
49029;SDS011;43337;52.070;4.508;2023-04-08T11:30:38;15.10;;;9.90;;
49029;SDS011;43337;52.070;4.508;2023-04-08T11:33:04;13.82;;;9.15;;
49029;SDS011;43337;52.070;4.508;2023-04-08T11:35:31;15.68;;;9.20;;
49029;SDS011;43337;52.070;4.508;2023-04-08T11:37:57;15.65;;;9.55;;
49029;SDS011;43337;52.070;4.508;2023-04-08T11:40:23;12.57;;;8.18;;
49029;SDS011;43337;52.070;4.508;2023-04-08T11:42:50;12.65;;;8.00;;
49029;SDS011;43337;52.070;4.508;2023-04-08T11:45:17;13.18;;;8.40;;
49029;SDS011;43337;52.070;4.508;2023-04-08T11:47:45;13.75;;;7.97;;
49029;SDS011;43337;52.070;4.508;2023-04-08T11:50:11;13.45;;;7.60;;
49029;SDS011;43337;52.070;4.508;2023-04-08T11:52:47;14.48;;;8.65;;
49029;SDS011;43337;52.070;4.508;2023-04-08T11:55:29;13.30;;;7.63;;
49029;SDS011;43337;52.070;4.508;2023-04-08T11:57:56;11.50;;;6.95;;
49029;SDS011;43337;52.070;4.508;2023-04-08T12:00:27;13.35;;;8.15;;
49029;SDS011;43337;52.070;4.508;2023-04-08T12:02:52;11.48;;;7.00;;
49029;SDS011;43337;52.070;4.508;2023-04-08T12:05:19;14.02;;;7.65;;
49029;SDS011;43337;52.070;4.508;2023-04-08T12:07:45;12.85;;;7.40;;
49029;SDS011;43337;52.070;4.508;2023-04-08T12:10:11;13.60;;;7.20;;
49029;SDS011;43337;52.070;4.508;2023-04-08T12:12:37;11.82;;;6.80;;
49029;SDS011;43337;52.070;4.508;2023-04-08T12:15:03;12.18;;;6.68;;
49029;SDS011;43337;52.070;4.508;2023-04-08T12:17:29;10.95;;;6.28;;
49029;SDS011;43337;52.070;4.508;2023-04-08T12:19:55;11.82;;;6.93;;
49029;SDS011;43337;52.070;4.508;2023-04-08T12:22:21;13.63;;;6.95;;
49029;SDS011;43337;52.070;4.508;2023-04-08T12:24:46;11.88;;;6.93;;
49029;SDS011;43337;52.070;4.508;2023-04-08T12:27:11;12.52;;;7.60;;
49029;SDS011;43337;52.070;4.508;2023-04-08T12:29:37;11.75;;;6.80;;
49029;SDS011;43337;52.070;4.508;2023-04-08T12:32:03;11.95;;;6.72;;
49029;SDS011;43337;52.070;4.508;2023-04-08T12:34:29;12.13;;;6.78;;
49029;SDS011;43337;52.070;4.508;2023-04-08T12:36:55;11.70;;;6.60;;
49029;SDS011;43337;52.070;4.508;2023-04-08T12:39:22;13.05;;;7.55;;
49029;SDS011;43337;52.070;4.508;2023-04-08T12:41:47;11.55;;;6.85;;
49029;SDS011;43337;52.070;4.508;2023-04-08T12:44:12;11.15;;;6.45;;
49029;SDS011;43337;52.070;4.508;2023-04-08T12:46:38;13.88;;;7.18;;
49029;SDS011;43337;52.070;4.508;2023-04-08T12:49:03;13.70;;;7.47;;
49029;SDS011;43337;52.070;4.508;2023-04-08T12:51:29;12.20;;;7.05;;
49029;SDS011;43337;52.070;4.508;2023-04-08T12:53:56;12.45;;;6.97;;
49029;SDS011;43337;52.070;4.508;2023-04-08T12:56:21;14.38;;;7.25;;
49029;SDS011;43337;52.070;4.508;2023-04-08T12:58:47;13.73;;;7.75;;
49029;SDS011;43337;52.070;4.508;2023-04-08T13:01:12;14.02;;;7.55;;
49029;SDS011;43337;52.070;4.508;2023-04-08T13:03:38;13.05;;;7.40;;
49029;SDS011;43337;52.070;4.508;2023-04-08T13:06:04;11.82;;;6.63;;
49029;SDS011;43337;52.070;4.508;2023-04-08T13:08:29;15.10;;;7.60;;
49029;SDS011;43337;52.070;4.508;2023-04-08T13:10:55;12.65;;;7.25;;
49029;SDS011;43337;52.070;4.508;2023-04-08T13:13:20;12.82;;;7.25;;
49029;SDS011;43337;52.070;4.508;2023-04-08T13:15:46;13.32;;;6.63;;
49029;SDS011;43337;52.070;4.508;2023-04-08T13:18:11;11.93;;;6.85;;
49029;SDS011;43337;52.070;4.508;2023-04-08T13:20:37;13.88;;;7.80;;
49029;SDS011;43337;52.070;4.508;2023-04-08T13:23:02;12.38;;;7.15;;
49029;SDS011;43337;52.070;4.508;2023-04-08T13:25:28;13.43;;;7.40;;
49029;SDS011;43337;52.070;4.508;2023-04-08T13:27:54;14.65;;;7.72;;
49029;SDS011;43337;52.070;4.508;2023-04-08T13:30:19;11.30;;;7.13;;
49029;SDS011;43337;52.070;4.508;2023-04-08T13:32:45;14.60;;;7.85;;
49029;SDS011;43337;52.070;4.508;2023-04-08T13:35:10;13.15;;;7.50;;
49029;SDS011;43337;52.070;4.508;2023-04-08T13:37:36;13.50;;;7.53;;
49029;SDS011;43337;52.070;4.508;2023-04-08T13:40:01;11.88;;;7.55;;
49029;SDS011;43337;52.070;4.508;2023-04-08T13:42:28;13.13;;;7.20;;
49029;SDS011;43337;52.070;4.508;2023-04-08T13:44:55;14.85;;;8.15;;
49029;SDS011;43337;52.070;4.508;2023-04-08T13:47:21;12.35;;;7.25;;
49029;SDS011;43337;52.070;4.508;2023-04-08T13:49:46;16.75;;;7.47;;
49029;SDS011;43337;52.070;4.508;2023-04-08T13:52:12;13.80;;;7.57;;
49029;SDS011;43337;52.070;4.508;2023-04-08T13:54:37;14.07;;;7.93;;
49029;SDS011;43337;52.070;4.508;2023-04-08T13:57:03;12.50;;;7.38;;
49029;SDS011;43337;52.070;4.508;2023-04-08T13:59:28;13.30;;;7.43;;
49029;SDS011;43337;52.070;4.508;2023-04-08T14:01:53;14.32;;;7.85;;
49029;SDS011;43337;52.070;4.508;2023-04-08T14:04:19;13.05;;;7.13;;
49029;SDS011;43337;52.070;4.508;2023-04-08T14:06:45;15.65;;;7.43;;
49029;SDS011;43337;52.070;4.508;2023-04-08T14:09:11;12.77;;;7.68;;
49029;SDS011;43337;52.070;4.508;2023-04-08T14:11:37;11.57;;;7.15;;
49029;SDS011;43337;52.070;4.508;2023-04-08T14:14:02;12.27;;;7.50;;
49029;SDS011;43337;52.070;4.508;2023-04-08T14:16:27;14.30;;;8.25;;
49029;SDS011;43337;52.070;4.508;2023-04-08T14:18:55;13.38;;;7.82;;
49029;SDS011;43337;52.070;4.508;2023-04-08T14:21:22;13.75;;;8.45;;
49029;SDS011;43337;52.070;4.508;2023-04-08T14:23:48;13.43;;;7.50;;
49029;SDS011;43337;52.070;4.508;2023-04-08T14:26:13;14.98;;;7.95;;
49029;SDS011;43337;52.070;4.508;2023-04-08T14:28:38;14.13;;;7.72;;
49029;SDS011;43337;52.070;4.508;2023-04-08T14:31:04;13.10;;;7.20;;
49029;SDS011;43337;52.070;4.508;2023-04-08T14:33:30;17.75;;;8.68;;
49029;SDS011;43337;52.070;4.508;2023-04-08T14:35:55;15.63;;;8.07;;
49029;SDS011;43337;52.070;4.508;2023-04-08T14:38:21;14.13;;;7.80;;
49029;SDS011;43337;52.070;4.508;2023-04-08T14:40:47;13.15;;;7.70;;
49029;SDS011;43337;52.070;4.508;2023-04-08T14:43:12;14.55;;;7.80;;
49029;SDS011;43337;52.070;4.508;2023-04-08T14:45:37;17.02;;;8.27;;
49029;SDS011;43337;52.070;4.508;2023-04-08T14:48:03;15.30;;;7.70;;
49029;SDS011;43337;52.070;4.508;2023-04-08T14:50:28;15.68;;;8.30;;
49029;SDS011;43337;52.070;4.508;2023-04-08T14:52:55;15.20;;;8.40;;
49029;SDS011;43337;52.070;4.508;2023-04-08T14:55:21;17.58;;;7.88;;
49029;SDS011;43337;52.070;4.508;2023-04-08T14:57:46;16.63;;;8.45;;
49029;SDS011;43337;52.070;4.508;2023-04-08T15:00:12;15.25;;;7.20;;
49029;SDS011;43337;52.070;4.508;2023-04-08T15:02:38;16.10;;;9.15;;
49029;SDS011;43337;52.070;4.508;2023-04-08T15:05:03;15.95;;;7.60;;